createdAt,value
2023-02-28T00:00:33.276Z,102169.31
2023-02-28T00:02:59.888Z,102172.44
2023-02-28T00:05:28.517Z,102174.38
2023-02-28T00:07:55.866Z,102171.81
2023-02-28T00:10:26.223Z,102172.03
2023-02-28T00:12:54.707Z,102160.56
2023-02-28T00:15:22.374Z,102176.19
2023-02-28T00:17:48.808Z,102172.75
2023-02-28T00:20:15.532Z,102171.28
2023-02-28T00:22:46.906Z,102172.25
2023-02-28T00:25:16.805Z,102169.06
2023-02-28T00:27:43.701Z,102168.44
2023-02-28T00:30:13.567Z,102171.16
2023-02-28T00:32:40.314Z,102170.13
2023-02-28T00:35:07.678Z,102164.38
2023-02-28T00:37:34.347Z,102165.97
2023-02-28T00:40:01.524Z,102171.03
2023-02-28T00:42:28.085Z,102170.91
2023-02-28T00:44:55.141Z,102169.69
2023-02-28T00:47:21.537Z,102166.84
2023-02-28T00:49:48.056Z,102169.19
2023-02-28T00:52:14.531Z,102172.44
2023-02-28T00:54:40.928Z,102177.59
2023-02-28T00:57:07.356Z,102172.91
2023-02-28T00:59:33.750Z,102182.66
2023-02-28T01:02:00.156Z,102168.00
2023-02-28T01:04:26.812Z,102175.16
2023-02-28T01:06:53.312Z,102173.41
2023-02-28T01:09:19.751Z,102173.41
2023-02-28T01:11:46.708Z,102177.72
2023-02-28T01:14:17.542Z,102175.16
2023-02-28T01:16:44.430Z,102168.97
2023-02-28T01:19:10.918Z,102169.09
2023-02-28T01:21:37.423Z,102172.91
2023-02-28T01:24:05.497Z,102174.13
2023-02-28T01:26:32.560Z,102178.81
2023-02-28T01:28:59.380Z,102173.50
2023-02-28T01:31:26.796Z,102180.81
2023-02-28T01:33:53.483Z,102172.88
2023-02-28T01:36:23.678Z,102169.56
2023-02-28T01:38:50.748Z,102174.34
2023-02-28T01:41:26.028Z,102172.16
2023-02-28T01:44:26.418Z,102159.81
2023-02-28T01:46:52.892Z,102168.28
2023-02-28T01:49:20.877Z,102171.97
2023-02-28T01:51:55.761Z,102164.84
2023-02-28T01:54:28.091Z,102170.38
2023-02-28T01:57:03.968Z,102167.81
2023-02-28T01:59:40.441Z,102164.47
2023-02-28T02:02:07.902Z,102169.91
2023-02-28T02:04:41.065Z,102175.41
2023-02-28T02:07:08.094Z,102168.59
2023-02-28T02:09:34.513Z,102162.34
2023-02-28T02:12:16.679Z,102154.34
2023-02-28T02:14:58.984Z,102157.16
2023-02-28T02:17:45.457Z,102151.25
2023-02-28T02:20:36.916Z,102158.75
2023-02-28T02:23:31.512Z,102158.13
2023-02-28T02:26:11.776Z,102160.94
2023-02-28T02:29:12.559Z,102161.16
2023-02-28T02:32:08.776Z,102155.13
2023-02-28T02:34:57.128Z,102161.22
2023-02-28T02:37:29.925Z,102161.38
2023-02-28T02:40:09.046Z,102155.44
2023-02-28T02:42:41.863Z,102160.31
2023-02-28T02:45:13.797Z,102155.13
2023-02-28T02:47:42.143Z,102149.22
2023-02-28T02:50:15.128Z,102159.19
2023-02-28T02:52:47.718Z,102150.44
2023-02-28T02:55:15.581Z,102151.41
2023-02-28T02:57:53.067Z,102152.50
2023-02-28T03:00:24.282Z,102158.78
2023-02-28T03:02:55.270Z,102155.09
2023-02-28T03:05:29.697Z,102165.69
2023-02-28T03:07:56.120Z,102156.47
2023-02-28T03:10:41.187Z,102155.50
2023-02-28T03:13:29.382Z,102155.50
2023-02-28T03:16:26.022Z,102162.00
2023-02-28T03:19:33.399Z,102147.81
2023-02-28T03:22:15.101Z,102161.38
2023-02-28T03:24:54.381Z,102153.38
2023-02-28T03:27:45.879Z,102162.47
2023-02-28T03:30:27.265Z,102149.66
2023-02-28T03:33:03.262Z,102146.84
2023-02-28T03:35:35.298Z,102153.88
2023-02-28T03:38:14.894Z,102148.34
2023-02-28T03:40:47.458Z,102150.94
2023-02-28T03:43:19.131Z,102150.81
2023-02-28T03:45:49.831Z,102153.78
2023-02-28T03:48:23.061Z,102159.28
2023-02-28T03:50:54.946Z,102161.25
2023-02-28T03:53:36.137Z,102162.22
2023-02-28T03:56:12.649Z,102165.91
2023-02-28T03:59:16.354Z,102159.75
2023-02-28T04:01:46.000Z,102153.38
2023-02-28T04:04:14.649Z,102159.75
2023-02-28T04:06:42.011Z,102167.13
2023-02-28T04:11:50.065Z,102165.97
2023-02-28T04:14:16.468Z,102161.63
2023-02-28T04:16:43.551Z,102160.66
2023-02-28T04:19:12.233Z,102163.38
2023-02-28T04:21:44.102Z,102164.34
2023-02-28T04:24:17.148Z,102165.44
2023-02-28T04:26:46.097Z,102164.81
2023-02-28T04:29:14.196Z,102169.50
2023-02-28T04:31:41.362Z,102172.28
2023-02-28T04:34:08.154Z,102164.28
2023-02-28T04:36:34.554Z,102160.72
2023-02-28T04:39:00.998Z,102166.25
2023-02-28T04:41:30.888Z,102165.50
2023-02-28T04:43:58.745Z,102165.63
2023-02-28T04:46:25.341Z,102167.69
2023-02-28T04:48:51.769Z,102163.47
2023-02-28T04:51:19.908Z,102172.78
2023-02-28T04:53:46.757Z,102175.94
2023-02-28T04:56:15.228Z,102177.13
2023-02-28T04:58:41.762Z,102176.50
2023-02-28T05:01:16.157Z,102180.28
2023-02-28T05:03:43.610Z,102176.28
2023-02-28T05:06:11.384Z,102175.78
2023-02-28T05:08:38.227Z,102180.41
2023-02-28T05:11:06.777Z,102177.84
2023-02-28T05:13:33.183Z,102176.31
2023-02-28T05:15:59.688Z,102186.50
2023-02-28T05:18:26.185Z,102180.22
2023-02-28T05:20:52.680Z,102188.41
2023-02-28T05:23:23.476Z,102181.31
2023-02-28T05:25:49.870Z,102186.72
2023-02-28T05:28:16.285Z,102187.56
2023-02-28T05:30:42.695Z,102184.97
2023-02-28T05:33:12.336Z,102182.28
2023-02-28T05:35:40.681Z,102181.50
2023-02-28T05:38:07.648Z,102188.00
2023-02-28T05:40:34.089Z,102195.38
2023-02-28T05:43:00.844Z,102203.56
2023-02-28T05:45:27.313Z,102190.38
2023-02-28T05:47:57.043Z,102200.31
2023-02-28T05:50:23.525Z,102204.09
2023-02-28T05:52:51.288Z,102196.00
2023-02-28T05:55:17.928Z,102196.88
2023-02-28T05:57:44.433Z,102199.66
2023-02-28T06:00:11.976Z,102201.63
2023-02-28T06:02:41.343Z,102195.56
2023-02-28T06:05:16.539Z,102198.50
2023-02-28T06:07:43.370Z,102206.78
2023-02-28T06:10:11.143Z,102202.25
2023-02-28T06:12:38.529Z,102203.13
2023-02-28T06:15:05.333Z,102191.44
2023-02-28T06:17:31.777Z,102214.91
2023-02-28T06:19:58.153Z,102205.09
2023-02-28T06:22:24.634Z,102209.63
2023-02-28T06:24:51.125Z,102206.78
2023-02-28T06:27:17.558Z,102214.91
2023-02-28T06:29:43.999Z,102223.00
2023-02-28T06:32:10.473Z,102214.16
2023-02-28T06:34:36.904Z,102221.38
2023-02-28T06:37:03.796Z,102222.25
2023-02-28T06:39:31.128Z,102221.38
2023-02-28T06:41:58.004Z,102219.78
2023-02-28T06:44:25.301Z,102225.19
2023-02-28T06:46:51.940Z,102225.19
2023-02-28T06:49:18.503Z,102225.28
2023-02-28T06:51:48.881Z,102230.59
2023-02-28T06:54:15.395Z,102227.88
2023-02-28T06:56:41.839Z,102236.00
2023-02-28T06:59:08.374Z,102240.22
2023-02-28T07:01:35.907Z,102248.97
2023-02-28T07:04:02.413Z,102243.34
2023-02-28T07:06:28.976Z,102250.28
2023-02-28T07:08:55.959Z,102251.78
2023-02-28T07:11:26.636Z,102249.84
2023-02-28T07:13:57.024Z,102253.09
2023-02-28T07:16:24.758Z,102251.78
2023-02-28T07:18:54.045Z,102254.09
2023-02-28T07:21:20.756Z,102252.03
2023-02-28T07:23:47.223Z,102249.09
2023-02-28T07:26:17.918Z,102249.84
2023-02-28T07:28:45.898Z,102255.06
2023-02-28T07:31:14.952Z,102260.34
2023-02-28T07:33:42.478Z,102253.75
2023-02-28T07:36:16.082Z,102255.28
2023-02-28T07:38:47.753Z,102256.78
2023-02-28T07:41:16.486Z,102260.88
2023-02-28T07:43:43.001Z,102260.56
2023-02-28T07:46:12.628Z,102253.72
2023-02-28T07:48:39.204Z,102255.13
2023-02-28T07:51:06.263Z,102255.47
2023-02-28T07:53:32.685Z,102253.91
2023-02-28T07:56:01.740Z,102256.91
2023-02-28T07:58:29.877Z,102252.69
2023-02-28T08:00:57.886Z,102256.53
2023-02-28T08:03:25.026Z,102252.38
2023-02-28T08:05:53.442Z,102255.53
2023-02-28T08:08:19.843Z,102256.66
2023-02-28T08:10:46.373Z,102256.97
2023-02-28T08:13:12.749Z,102251.09
2023-02-28T08:15:39.207Z,102248.78
2023-02-28T08:18:06.364Z,102248.94
2023-02-28T08:20:32.830Z,102238.50
2023-02-28T08:22:59.226Z,102241.38
2023-02-28T08:25:25.673Z,102248.06
2023-02-28T08:27:53.505Z,102233.03
2023-02-28T08:30:20.159Z,102232.56
2023-02-28T08:32:46.795Z,102225.56
2023-02-28T08:35:13.394Z,102226.81
2023-02-28T08:37:39.935Z,102220.88
2023-02-28T08:40:07.184Z,102221.28
2023-02-28T08:42:33.736Z,102224.38
2023-02-28T08:45:00.202Z,102230.91
2023-02-28T08:47:27.001Z,102230.41
2023-02-28T08:49:53.537Z,102230.69
2023-02-28T08:52:19.978Z,102228.06
2023-02-28T08:54:46.417Z,102233.63
2023-02-28T08:57:12.874Z,102222.13
2023-02-28T08:59:39.305Z,102224.72
2023-02-28T09:02:05.744Z,102221.09
2023-02-28T09:04:32.181Z,102222.94
2023-02-28T09:06:58.636Z,102213.03
2023-02-28T09:09:25.110Z,102219.53
2023-02-28T09:11:51.654Z,102209.75
2023-02-28T09:14:18.577Z,102203.78
2023-02-28T09:16:45.126Z,102202.75
2023-02-28T09:19:13.052Z,102207.88
2023-02-28T09:21:39.525Z,102206.56
2023-02-28T09:24:06.376Z,102197.06
2023-02-28T09:26:39.026Z,102202.91
2023-02-28T09:29:10.105Z,102199.97
2023-02-28T09:31:36.663Z,102199.59
2023-02-28T09:34:04.806Z,102198.09
2023-02-28T09:36:43.763Z,102195.84
2023-02-28T09:39:11.870Z,102205.78
2023-02-28T09:41:48.334Z,102203.81
2023-02-28T09:44:23.658Z,102194.66
2023-02-28T09:46:55.146Z,102196.13
2023-02-28T09:49:26.370Z,102191.97
2023-02-28T09:52:02.632Z,102187.94
2023-02-28T09:54:32.205Z,102179.47
2023-02-28T09:57:17.102Z,102173.28
2023-02-28T09:59:44.156Z,102180.56
2023-02-28T10:02:20.201Z,102186.03
2023-02-28T10:04:56.193Z,102182.38
2023-02-28T10:07:30.668Z,102186.22
2023-02-28T10:10:02.922Z,102179.66
2023-02-28T10:12:30.654Z,102174.16
2023-02-28T10:15:00.208Z,102177.75
2023-02-28T10:17:54.861Z,102171.91
2023-02-28T10:20:31.010Z,102165.81
2023-02-28T10:23:26.681Z,102163.22
2023-02-28T10:26:00.981Z,102166.22
2023-02-28T10:28:30.120Z,102160.56
2023-02-28T10:30:57.479Z,102171.59
2023-02-28T10:33:25.554Z,102161.75
2023-02-28T10:35:53.122Z,102156.72
2023-02-28T10:38:26.724Z,102156.56
2023-02-28T10:41:12.520Z,102156.41
2023-02-28T10:43:40.925Z,102161.03
2023-02-28T10:46:10.434Z,102152.28
2023-02-28T10:48:43.975Z,102155.09
2023-02-28T10:51:16.429Z,102160.50
2023-02-28T10:54:03.098Z,102150.56
2023-02-28T10:56:30.229Z,102158.47
2023-02-28T10:59:28.172Z,102160.66
2023-02-28T11:01:55.103Z,102145.63
2023-02-28T11:04:30.517Z,102152.09
2023-02-28T11:07:02.680Z,102153.63
2023-02-28T11:09:33.661Z,102144.06
2023-02-28T11:12:01.078Z,102136.25
2023-02-28T11:14:35.150Z,102129.09
2023-02-28T11:17:16.236Z,102129.44
2023-02-28T11:19:48.520Z,102121.00
2023-02-28T11:22:21.631Z,102121.84
2023-02-28T11:24:52.632Z,102118.59
2023-02-28T11:27:43.496Z,102116.22
2023-02-28T11:30:30.737Z,102111.88
2023-02-28T11:32:57.485Z,102111.06
2023-02-28T11:35:35.626Z,102109.69
2023-02-28T11:38:03.449Z,102108.66
2023-02-28T11:40:40.213Z,102103.50
2023-02-28T11:43:19.208Z,102110.34
2023-02-28T11:45:51.389Z,102112.81
2023-02-28T11:48:32.606Z,102114.84
2023-02-28T11:51:23.671Z,102117.97
2023-02-28T11:54:08.370Z,102106.38
2023-02-28T11:56:39.032Z,102103.31
2023-02-28T11:59:17.647Z,102115.66
2023-02-28T12:02:09.041Z,102118.44
2023-02-28T12:04:50.690Z,102107.25
2023-02-28T12:07:38.248Z,102104.88
2023-02-28T12:10:10.993Z,102099.22
2023-02-28T12:12:53.216Z,102105.00
2023-02-28T12:15:30.904Z,102102.84
2023-02-28T12:18:21.979Z,102091.66
2023-02-28T12:21:02.776Z,102081.22
2023-02-28T12:24:27.432Z,102080.03
2023-02-28T12:26:55.856Z,102093.69
2023-02-28T12:29:43.507Z,102091.56
2023-02-28T12:32:21.295Z,102082.31
2023-02-28T12:34:58.242Z,102077.06
2023-02-28T12:37:42.124Z,102066.63
2023-02-28T12:40:22.911Z,102065.28
2023-02-28T12:42:59.146Z,102075.81
2023-02-28T12:45:39.341Z,102058.91
2023-02-28T12:48:11.930Z,102062.81
2023-02-28T12:50:39.232Z,102064.28
2023-02-28T12:53:42.668Z,102069.03
2023-02-28T12:56:20.253Z,102070.81
2023-02-28T12:58:51.281Z,102061.00
2023-02-28T13:01:50.409Z,102071.63
2023-02-28T13:04:35.343Z,102056.28
2023-02-28T13:07:20.838Z,102069.81
2023-02-28T13:10:00.596Z,102059.53
2023-02-28T13:12:27.906Z,102059.03
2023-02-28T13:15:17.607Z,102064.09
2023-02-28T13:17:50.413Z,102065.41
2023-02-28T13:20:39.037Z,102064.38
2023-02-28T13:23:39.667Z,102050.53
2023-02-28T13:26:06.261Z,102056.47
2023-02-28T13:28:58.608Z,102047.16
2023-02-28T13:31:25.444Z,102041.56
2023-02-28T13:33:53.302Z,102047.34
2023-02-28T13:36:19.623Z,102054.94
2023-02-28T13:39:00.988Z,102041.72
2023-02-28T13:41:48.342Z,102045.09
2023-02-28T13:44:27.288Z,102038.75
2023-02-28T13:46:53.718Z,102042.81
2023-02-28T13:49:33.294Z,102033.88
2023-02-28T13:52:15.172Z,102041.38
2023-02-28T13:55:17.068Z,102046.53
2023-02-28T13:57:50.234Z,102037.16
2023-02-28T14:00:49.073Z,102014.88
2023-02-28T14:03:36.760Z,102023.72
2023-02-28T14:06:22.076Z,102026.72
2023-02-28T14:09:08.839Z,102018.34
2023-02-28T14:11:39.117Z,102009.72
2023-02-28T14:14:07.520Z,102018.34
2023-02-28T14:16:44.867Z,102002.34
2023-02-28T14:19:25.289Z,102006.94
2023-02-28T14:22:18.774Z,102012.41
2023-02-28T14:25:07.081Z,102002.53
2023-02-28T14:27:48.682Z,102008.59
2023-02-28T14:30:53.062Z,102011.81
2023-02-28T14:33:23.175Z,101993.56
2023-02-28T14:36:18.767Z,102001.31
2023-02-28T14:38:48.093Z,102005.28
2023-02-28T14:41:30.225Z,102000.44
2023-02-28T14:44:00.117Z,102000.84
2023-02-28T14:46:38.017Z,101994.41
2023-02-28T14:49:13.285Z,101989.34
2023-02-28T14:51:39.847Z,101988.72
2023-02-28T14:54:06.344Z,101985.22
2023-02-28T14:56:39.889Z,101988.28
2023-02-28T14:59:23.347Z,101982.00
2023-02-28T15:01:50.983Z,101983.03
2023-02-28T15:04:28.053Z,101982.69
2023-02-28T15:07:12.325Z,101975.72
2023-02-28T15:09:38.788Z,101985.09
2023-02-28T15:12:05.719Z,101974.81
2023-02-28T15:14:33.107Z,101978.69
2023-02-28T15:17:10.364Z,101982.41
2023-02-28T15:19:42.814Z,101986.81
2023-02-28T15:22:17.826Z,101990.28
2023-02-28T15:24:49.620Z,101989.41
2023-02-28T15:27:32.037Z,101986.69
2023-02-28T15:30:07.193Z,101986.06
2023-02-28T15:32:38.393Z,101992.22
2023-02-28T15:35:23.527Z,101984.38
2023-02-28T15:37:54.134Z,101997.63
2023-02-28T15:40:41.662Z,101987.31
2023-02-28T15:43:18.660Z,101997.31
2023-02-28T15:45:47.603Z,101993.16
2023-02-28T15:48:21.010Z,101993.31
2023-02-28T15:50:57.224Z,101989.47
2023-02-28T15:53:27.499Z,101992.91
2023-02-28T15:56:04.269Z,101987.72
2023-02-28T15:58:31.657Z,101991.28
2023-02-28T16:01:18.808Z,101991.41
2023-02-28T16:03:49.174Z,101992.09
2023-02-28T16:06:45.323Z,101992.09
2023-02-28T16:09:15.541Z,101989.56
2023-02-28T16:11:46.077Z,101983.63
2023-02-28T16:14:16.807Z,101998.84
2023-02-28T16:16:46.599Z,101999.41
2023-02-28T16:19:13.417Z,101997.00
2023-02-28T16:21:40.145Z,102003.13
2023-02-28T16:24:07.201Z,102010.78
2023-02-28T16:26:35.124Z,102007.31
2023-02-28T16:29:02.807Z,102017.28
2023-02-28T16:31:30.330Z,102022.44
2023-02-28T16:33:58.116Z,102022.25
2023-02-28T16:36:28.825Z,102024.59
2023-02-28T16:38:55.619Z,102016.59
2023-02-28T16:41:26.582Z,102019.28
2023-02-28T16:43:59.548Z,102025.94
2023-02-28T16:46:31.091Z,102037.06
2023-02-28T16:48:57.826Z,102030.31
2023-02-28T16:51:24.256Z,102032.16
2023-02-28T16:53:50.679Z,102043.91
2023-02-28T16:56:26.399Z,102043.28
2023-02-28T16:59:01.873Z,102054.25
2023-02-28T17:01:30.068Z,102051.72
2023-02-28T17:03:56.880Z,102054.28
2023-02-28T17:06:26.701Z,102057.72
2023-02-28T17:08:53.343Z,102064.22
2023-02-28T17:11:20.662Z,102066.28
2023-02-28T17:13:47.877Z,102074.47
2023-02-28T17:16:37.582Z,102078.53
2023-02-28T17:19:06.541Z,102081.91
2023-02-28T17:21:34.109Z,102086.69
2023-02-28T17:24:01.359Z,102092.41
2023-02-28T17:26:29.069Z,102097.28
2023-02-28T17:28:57.824Z,102093.94
2023-02-28T17:31:26.225Z,102098.59
2023-02-28T17:33:53.300Z,102099.97
2023-02-28T17:36:27.594Z,102105.63
2023-02-28T17:38:56.109Z,102112.13
2023-02-28T17:41:23.096Z,102115.72
2023-02-28T17:43:51.188Z,102123.00
2023-02-28T17:46:21.734Z,102121.13
2023-02-28T17:48:49.489Z,102125.34
2023-02-28T17:51:17.224Z,102133.34
2023-02-28T17:53:44.004Z,102135.69
2023-02-28T17:56:17.288Z,102132.41
2023-02-28T17:58:43.823Z,102139.22
2023-02-28T18:01:10.643Z,102142.13
2023-02-28T18:03:37.279Z,102140.53
2023-02-28T18:06:04.078Z,102140.72
2023-02-28T18:08:31.897Z,102139.28
2023-02-28T18:10:58.292Z,102148.50
2023-02-28T18:13:24.651Z,102147.59
2023-02-28T18:15:51.156Z,102147.59
2023-02-28T18:18:17.640Z,102146.56
2023-02-28T18:20:44.064Z,102143.44
2023-02-28T18:23:10.503Z,102149.44
2023-02-28T18:25:38.745Z,102157.44
2023-02-28T18:28:05.626Z,102151.13
2023-02-28T18:30:36.134Z,102169.59
2023-02-28T18:33:02.793Z,102165.25
2023-02-28T18:35:36.629Z,102159.34
2023-02-28T18:38:13.466Z,102164.63
2023-02-28T18:40:40.033Z,102163.44
2023-02-28T18:43:06.752Z,102163.97
2023-02-28T18:45:36.232Z,102159.97
2023-02-28T18:48:02.626Z,102159.16
2023-02-28T18:50:29.562Z,102164.41
2023-02-28T18:52:57.834Z,102157.53
2023-02-28T18:55:24.456Z,102162.66
2023-02-28T18:57:50.966Z,102167.75
2023-02-28T19:00:22.725Z,102169.16
2023-02-28T19:02:50.665Z,102172.53
2023-02-28T19:05:18.096Z,102171.34
2023-02-28T19:07:45.515Z,102177.41
2023-02-28T19:10:13.285Z,102167.81
2023-02-28T19:12:42.276Z,102172.91
2023-02-28T19:15:10.669Z,102166.88
2023-02-28T19:17:37.620Z,102169.09
2023-02-28T19:20:05.126Z,102170.78
2023-02-28T19:22:31.927Z,102176.97
2023-02-28T19:24:58.340Z,102176.03
2023-02-28T19:27:25.080Z,102185.41
2023-02-28T19:29:52.930Z,102181.97
2023-02-28T19:32:21.029Z,102189.38
2023-02-28T19:34:47.724Z,102189.50
2023-02-28T19:37:14.453Z,102188.16
2023-02-28T19:39:46.111Z,102183.00
2023-02-28T19:42:18.710Z,102192.75
2023-02-28T19:44:45.147Z,102195.09
2023-02-28T19:47:12.402Z,102199.66
2023-02-28T19:49:38.863Z,102193.75
2023-02-28T19:52:05.895Z,102194.59
2023-02-28T19:54:32.488Z,102193.03
2023-02-28T19:56:58.985Z,102198.97
2023-02-28T19:59:36.005Z,102197.75
2023-02-28T20:02:05.790Z,102200.06
2023-02-28T20:04:32.255Z,102197.34
2023-02-28T20:06:58.759Z,102193.75
2023-02-28T20:09:25.215Z,102189.44
2023-02-28T20:11:51.752Z,102192.53
2023-02-28T20:14:18.188Z,102196.38
2023-02-28T20:16:45.463Z,102191.19
2023-02-28T20:19:13.242Z,102191.66
2023-02-28T20:21:41.272Z,102195.63
2023-02-28T20:24:07.850Z,102189.69
2023-02-28T20:26:34.955Z,102191.91
2023-02-28T20:29:01.372Z,102196.84
2023-02-28T20:31:28.750Z,102193.53
2023-02-28T20:33:55.289Z,102198.19
2023-02-28T20:36:23.406Z,102200.28
2023-02-28T20:38:51.645Z,102194.13
2023-02-28T20:41:18.422Z,102201.50
2023-02-28T20:43:45.767Z,102197.28
2023-02-28T20:46:12.461Z,102188.53
2023-02-28T20:48:39.622Z,102195.06
2023-02-28T20:51:06.944Z,102198.13
2023-02-28T20:53:34.605Z,102198.38
2023-02-28T20:56:20.739Z,102194.06
2023-02-28T20:58:48.806Z,102191.72
2023-02-28T21:01:18.430Z,102189.09
2023-02-28T21:03:49.974Z,102192.19
2023-02-28T21:06:18.577Z,102197.00
2023-02-28T21:08:44.983Z,102192.03
2023-02-28T21:11:17.800Z,102191.31
2023-02-28T21:13:46.124Z,102189.03
2023-02-28T21:16:19.086Z,102194.69
2023-02-28T21:18:46.035Z,102189.75
2023-02-28T21:21:18.100Z,102195.41
2023-02-28T21:23:46.653Z,102195.63
2023-02-28T21:26:21.521Z,102193.16
2023-02-28T21:28:51.684Z,102190.69
2023-02-28T21:31:19.411Z,102202.63
2023-02-28T21:33:46.636Z,102188.31
2023-02-28T21:36:18.432Z,102191.41
2023-02-28T21:38:46.507Z,102198.53
2023-02-28T21:41:18.616Z,102201.13
2023-02-28T21:43:47.900Z,102204.06
2023-02-28T21:46:21.366Z,102207.84
2023-02-28T21:48:51.839Z,102204.41
2023-02-28T21:51:22.155Z,102210.94
2023-02-28T21:53:50.059Z,102211.03
2023-02-28T21:56:19.539Z,102206.59
2023-02-28T21:58:47.105Z,102202.38
2023-02-28T22:01:19.355Z,102210.72
2023-02-28T22:03:47.820Z,102206.53
2023-02-28T22:06:19.972Z,102204.91
2023-02-28T22:08:49.040Z,102202.53
2023-02-28T22:11:16.630Z,102202.78
2023-02-28T22:13:44.383Z,102205.72
2023-02-28T22:16:14.014Z,102204.94
2023-02-28T22:18:41.346Z,102221.41
2023-02-28T22:21:09.211Z,102217.97
2023-02-28T22:23:36.873Z,102227.06
2023-02-28T22:26:09.667Z,102229.88
2023-02-28T22:28:36.890Z,102218.41
2023-02-28T22:31:15.132Z,102230.22
2023-02-28T22:33:42.749Z,102225.78
2023-02-28T22:36:10.828Z,102216.94
2023-02-28T22:38:37.468Z,102217.75
2023-02-28T22:41:06.388Z,102220.59
2023-02-28T22:43:33.351Z,102222.53
2023-02-28T22:46:06.561Z,102227.31
2023-02-28T22:48:34.402Z,102224.84
2023-02-28T22:51:06.580Z,102221.47
2023-02-28T22:53:34.813Z,102226.25
2023-02-28T22:56:02.186Z,102233.63
2023-02-28T22:58:28.685Z,102227.56
2023-02-28T23:00:55.839Z,102227.75
2023-02-28T23:03:24.666Z,102228.97
2023-02-28T23:05:52.590Z,102228.22
2023-02-28T23:08:23.239Z,102233.84
2023-02-28T23:10:50.911Z,102234.81
2023-02-28T23:13:19.149Z,102235.78
2023-02-28T23:15:46.977Z,102232.56
2023-02-28T23:18:14.122Z,102228.13
2023-02-28T23:20:40.584Z,102234.72
2023-02-28T23:23:07.033Z,102221.28
2023-02-28T23:25:33.556Z,102226.06
2023-02-28T23:27:59.957Z,102226.19
2023-02-28T23:30:26.366Z,102223.56
2023-02-28T23:32:52.778Z,102218.94
2023-02-28T23:35:19.298Z,102210.69
2023-02-28T23:37:45.704Z,102211.47
2023-02-28T23:40:12.987Z,102199.66
2023-02-28T23:42:39.614Z,102201.41
2023-02-28T23:45:06.905Z,102205.94
2023-02-28T23:47:33.324Z,102203.59
2023-02-28T23:49:59.689Z,102202.16
2023-02-28T23:52:26.118Z,102216.88
2023-02-28T23:54:52.567Z,102208.44
2023-02-28T23:57:18.929Z,102216.75
2023-02-28T23:59:45.340Z,102215.22
